createdAt,value
2023-01-21T00:00:23.068Z,16.43
2023-01-21T00:02:49.612Z,20.33
2023-01-21T00:05:16.227Z,19.60
2023-01-21T00:07:42.777Z,19.83
2023-01-21T00:10:09.926Z,20.07
2023-01-21T00:12:38.488Z,17.77
2023-01-21T00:15:05.475Z,17.80
2023-01-21T00:17:35.741Z,17.53
2023-01-21T00:20:03.816Z,17.10
2023-01-21T00:22:30.710Z,17.00
2023-01-21T00:24:57.330Z,17.00
2023-01-21T00:27:24.088Z,17.57
2023-01-21T00:29:50.685Z,18.00
2023-01-21T00:32:17.483Z,17.07
2023-01-21T00:34:44.074Z,18.30
2023-01-21T00:37:10.709Z,17.07
2023-01-21T00:39:42.532Z,19.37
2023-01-21T00:42:11.149Z,18.10
2023-01-21T00:44:40.866Z,19.53
2023-01-21T00:47:07.469Z,17.30
2023-01-21T00:49:34.057Z,17.13
2023-01-21T00:52:00.891Z,16.70
2023-01-21T00:54:27.470Z,16.10
2023-01-21T00:56:54.293Z,18.50
2023-01-21T00:59:20.929Z,18.20
2023-01-21T01:01:47.557Z,17.17
2023-01-21T01:04:14.411Z,19.13
2023-01-21T01:06:41.123Z,17.00
2023-01-21T01:09:08.249Z,15.90
2023-01-21T01:11:34.890Z,17.30
2023-01-21T01:14:01.504Z,17.00
2023-01-21T01:16:28.136Z,16.80
2023-01-21T01:18:55.817Z,17.47
2023-01-21T01:21:24.525Z,17.00
2023-01-21T01:24:00.583Z,17.50
2023-01-21T01:26:27.339Z,17.13
2023-01-21T01:28:53.937Z,17.53
2023-01-21T01:31:21.617Z,15.57
2023-01-21T01:33:48.520Z,17.60
2023-01-21T01:36:17.610Z,16.07
2023-01-21T01:38:44.667Z,17.50
2023-01-21T01:41:20.848Z,16.80
2023-01-21T01:44:03.739Z,15.50
2023-01-21T01:46:34.956Z,19.27
2023-01-21T01:49:30.855Z,19.97
2023-01-21T01:52:02.668Z,20.17
2023-01-21T01:54:35.599Z,21.03
2023-01-21T01:57:05.484Z,19.63
2023-01-21T01:59:32.863Z,16.83
2023-01-21T02:02:04.654Z,18.27
2023-01-21T02:04:38.066Z,19.57
2023-01-21T02:07:04.988Z,17.50
2023-01-21T02:09:31.626Z,17.37
2023-01-21T02:12:00.537Z,18.23
2023-01-21T02:14:28.616Z,19.57
2023-01-21T02:17:20.877Z,20.23
2023-01-21T02:19:53.597Z,19.40
2023-01-21T02:22:42.630Z,18.03
2023-01-21T02:25:31.005Z,18.40
2023-01-21T02:28:06.217Z,18.23
2023-01-21T02:31:00.457Z,19.07
2023-01-21T02:33:41.663Z,19.97
2023-01-21T02:36:11.083Z,18.77
2023-01-21T02:38:46.399Z,18.20
2023-01-21T02:41:28.214Z,20.10
2023-01-21T02:44:16.530Z,18.50
2023-01-21T02:46:49.662Z,17.70
2023-01-21T02:49:26.310Z,18.93
2023-01-21T02:51:52.924Z,19.47
2023-01-21T02:54:41.052Z,19.13
2023-01-21T02:57:14.683Z,19.47
2023-01-21T02:59:45.740Z,20.33
2023-01-21T03:02:21.105Z,19.57
2023-01-21T03:05:24.593Z,19.37
2023-01-21T03:08:20.540Z,18.03
2023-01-21T03:10:55.417Z,19.20
2023-01-21T03:13:53.868Z,19.50
2023-01-21T03:16:43.552Z,19.13
2023-01-21T03:19:14.549Z,18.57
2023-01-21T03:21:41.818Z,19.63
2023-01-21T03:24:10.818Z,19.30
2023-01-21T03:26:43.974Z,21.37
2023-01-21T03:29:16.199Z,19.97
2023-01-21T03:31:45.500Z,18.33
2023-01-21T03:34:15.037Z,19.03
2023-01-21T03:37:02.234Z,19.07
2023-01-21T03:39:55.656Z,19.93
2023-01-21T03:42:22.778Z,18.87
2023-01-21T03:44:49.469Z,19.60
2023-01-21T03:47:36.918Z,19.07
2023-01-21T03:50:20.152Z,18.40
2023-01-21T03:52:46.963Z,18.93
2023-01-21T03:55:15.811Z,19.37
2023-01-21T03:57:42.528Z,18.83
2023-01-21T04:00:10.006Z,19.83
2023-01-21T04:02:36.625Z,17.80
2023-01-21T04:05:03.698Z,19.80
2023-01-21T04:07:30.344Z,18.53
2023-01-21T04:09:56.966Z,19.00
2023-01-21T04:12:23.565Z,19.50
2023-01-21T04:14:50.133Z,19.33
2023-01-21T04:17:16.868Z,18.93
2023-01-21T04:19:43.455Z,18.30
2023-01-21T04:22:10.027Z,19.03
2023-01-21T04:24:36.582Z,18.63
2023-01-21T04:27:03.289Z,20.30
2023-01-21T04:29:29.867Z,18.97
2023-01-21T04:31:56.556Z,20.20
2023-01-21T04:34:23.138Z,20.47
2023-01-21T04:36:49.701Z,19.30
2023-01-21T04:39:16.341Z,19.73
2023-01-21T04:41:42.982Z,21.00
2023-01-21T04:44:09.637Z,19.67
2023-01-21T04:46:36.315Z,20.87
2023-01-21T04:49:02.978Z,19.30
2023-01-21T04:51:29.753Z,19.43
2023-01-21T04:53:56.346Z,19.37
2023-01-21T04:56:22.895Z,19.70
2023-01-21T04:58:49.534Z,20.30
2023-01-21T05:01:16.258Z,20.97
2023-01-21T05:03:42.918Z,20.90
2023-01-21T05:06:09.549Z,20.77
2023-01-21T05:08:36.147Z,21.20
2023-01-21T05:11:02.718Z,21.10
2023-01-21T05:13:29.287Z,20.20
2023-01-21T05:15:56.232Z,22.10
2023-01-21T05:18:22.893Z,23.00
2023-01-21T05:20:49.459Z,21.23
2023-01-21T05:23:16.020Z,20.73
2023-01-21T05:25:42.570Z,20.17
2023-01-21T05:28:09.178Z,22.60
2023-01-21T05:30:36.699Z,22.23
2023-01-21T05:33:04.569Z,20.77
2023-01-21T05:35:31.161Z,21.60
2023-01-21T05:38:00.250Z,21.47
2023-01-21T05:40:27.215Z,21.77
2023-01-21T05:42:53.873Z,20.33
2023-01-21T05:45:20.508Z,22.77
2023-01-21T05:47:47.163Z,22.10
2023-01-21T05:50:13.871Z,22.53
2023-01-21T05:52:40.551Z,21.87
2023-01-21T05:55:08.165Z,20.40
2023-01-21T05:57:34.999Z,19.13
2023-01-21T06:00:01.684Z,21.83
2023-01-21T06:02:28.366Z,22.40
2023-01-21T06:04:54.932Z,21.27
2023-01-21T06:07:21.487Z,21.07
2023-01-21T06:09:48.092Z,21.87
2023-01-21T06:12:14.677Z,22.33
2023-01-21T06:14:41.345Z,20.23
2023-01-21T06:17:08.049Z,22.80
2023-01-21T06:19:34.626Z,22.47
2023-01-21T06:22:01.189Z,21.77
2023-01-21T06:24:27.752Z,21.30
2023-01-21T06:26:54.323Z,20.80
2023-01-21T06:29:20.945Z,21.80
2023-01-21T06:31:47.705Z,20.63
2023-01-21T06:34:14.338Z,22.03
2023-01-21T06:36:42.519Z,22.30
2023-01-21T06:39:12.133Z,22.90
2023-01-21T06:41:38.780Z,21.50
2023-01-21T06:44:05.948Z,16.00
2023-01-21T06:46:32.760Z,20.40
2023-01-21T06:48:59.495Z,22.90
2023-01-21T06:51:26.159Z,22.13
2023-01-21T06:53:53.559Z,22.37
2023-01-21T06:56:20.956Z,22.90
2023-01-21T06:58:48.093Z,22.37
2023-01-21T07:01:14.849Z,23.47
2023-01-21T07:03:41.473Z,21.53
2023-01-21T07:06:08.119Z,22.73
2023-01-21T07:08:34.661Z,21.93
2023-01-21T07:11:01.306Z,21.20
2023-01-21T07:13:27.860Z,23.90
2023-01-21T07:16:02.701Z,25.53
2023-01-21T07:18:29.809Z,22.87
2023-01-21T07:20:56.487Z,23.30
2023-01-21T07:23:23.593Z,22.93
2023-01-21T07:25:50.365Z,22.43
2023-01-21T07:28:16.976Z,23.27
2023-01-21T07:30:43.722Z,22.67
2023-01-21T07:33:10.584Z,23.93
2023-01-21T07:35:37.314Z,22.33
2023-01-21T07:38:04.034Z,22.10
2023-01-21T07:40:30.800Z,24.03
2023-01-21T07:58:52.556Z,20.20
2023-01-21T08:01:19.246Z,22.40
2023-01-21T08:03:45.868Z,22.00
2023-01-21T08:06:12.477Z,22.20
2023-01-21T08:08:39.039Z,22.00
2023-01-21T08:11:05.728Z,21.07
2023-01-21T08:13:32.278Z,23.10
2023-01-21T08:15:58.907Z,24.00
2023-01-21T08:18:25.653Z,23.17
2023-01-21T08:20:58.060Z,20.90
2023-01-21T08:23:26.154Z,21.63
2023-01-21T08:25:53.953Z,22.27
2023-01-21T08:28:21.284Z,24.07
2023-01-21T08:30:48.131Z,19.33
2023-01-21T08:33:15.450Z,20.20
2023-01-21T08:35:42.143Z,22.67
2023-01-21T08:38:09.034Z,22.73
2023-01-21T08:40:35.833Z,21.77
2023-01-21T08:43:04.577Z,22.83
2023-01-21T08:45:31.401Z,21.00
2023-01-21T08:47:58.058Z,24.37
2023-01-21T08:50:24.693Z,20.60
2023-01-21T08:52:53.051Z,20.80
2023-01-21T08:55:20.327Z,20.07
2023-01-21T08:57:48.307Z,20.83
2023-01-21T09:00:15.265Z,20.07
2023-01-21T09:02:41.899Z,20.00
2023-01-21T09:05:08.598Z,19.77
2023-01-21T09:07:35.217Z,19.50
2023-01-21T09:10:03.501Z,20.37
2023-01-21T09:12:30.080Z,21.40
2023-01-21T09:14:56.781Z,21.33
2023-01-21T09:17:23.531Z,19.07
2023-01-21T09:19:50.101Z,21.73
2023-01-21T09:22:17.471Z,20.70
2023-01-21T09:24:44.154Z,20.70
2023-01-21T09:27:11.144Z,22.83
2023-01-21T09:29:37.696Z,19.43
2023-01-21T09:32:07.996Z,21.20
2023-01-21T09:34:35.868Z,19.40
2023-01-21T09:37:04.038Z,21.53
2023-01-21T09:39:30.631Z,21.30
2023-01-21T09:41:58.153Z,23.10
2023-01-21T09:44:44.724Z,20.00
2023-01-21T09:47:30.682Z,20.10
2023-01-21T09:50:05.406Z,20.30
2023-01-21T09:52:45.801Z,19.63
2023-01-21T09:55:44.017Z,21.00
2023-01-21T09:58:13.287Z,21.47
2023-01-21T10:00:52.409Z,20.30
2023-01-21T10:03:55.389Z,20.43
2023-01-21T10:06:47.137Z,21.03
2023-01-21T10:09:38.685Z,18.10
2023-01-21T10:12:23.594Z,20.47
2023-01-21T10:15:05.007Z,17.30
2023-01-21T10:17:53.264Z,18.33
2023-01-21T10:20:42.044Z,20.60
2023-01-21T10:23:27.735Z,18.10
2023-01-21T10:25:56.113Z,19.90
2023-01-21T10:28:25.190Z,16.00
2023-01-21T10:30:53.989Z,19.07
2023-01-21T10:33:24.075Z,17.80
2023-01-21T10:36:10.742Z,18.43
2023-01-21T10:38:40.531Z,18.50
2023-01-21T10:42:00.707Z,18.03
2023-01-21T10:44:53.176Z,16.97
2023-01-21T10:47:25.853Z,15.73
2023-01-21T10:50:24.555Z,17.87
2023-01-21T10:53:06.927Z,15.83
2023-01-21T10:55:42.153Z,17.20
2023-01-21T10:58:44.723Z,16.80
2023-01-21T11:01:32.786Z,15.30
2023-01-21T11:04:04.011Z,18.03
2023-01-21T11:06:33.196Z,17.10
2023-01-21T11:09:02.893Z,17.67
2023-01-21T11:11:35.548Z,16.33
2023-01-21T11:14:02.383Z,17.60
2023-01-21T11:16:43.452Z,18.77
2023-01-21T11:19:18.573Z,16.83
2023-01-21T11:21:57.435Z,18.00
2023-01-21T11:24:25.652Z,18.70
2023-01-21T11:26:59.057Z,15.40
2023-01-21T11:29:26.519Z,14.67
2023-01-21T11:32:15.889Z,15.30
2023-01-21T11:34:51.156Z,13.37
2023-01-21T11:37:26.809Z,13.63
2023-01-21T11:39:59.898Z,13.90
2023-01-21T11:42:27.013Z,12.40
2023-01-21T11:45:04.280Z,12.90
2023-01-21T11:47:46.298Z,11.33
2023-01-21T11:50:22.575Z,13.60
2023-01-21T11:53:12.871Z,13.67
2023-01-21T11:55:46.679Z,15.67
2023-01-21T11:58:22.105Z,14.17
2023-01-21T12:00:51.154Z,12.70
2023-01-21T12:03:21.209Z,12.40
2023-01-21T12:05:49.905Z,13.23
2023-01-21T12:08:23.748Z,11.80
2023-01-21T12:10:52.829Z,11.57
2023-01-21T12:13:43.406Z,11.87
2023-01-21T12:16:40.409Z,11.67
2023-01-21T12:19:25.696Z,13.27
2023-01-21T12:22:19.540Z,10.83
2023-01-21T12:25:07.139Z,11.03
2023-01-21T12:28:00.186Z,10.47
2023-01-21T12:30:37.662Z,11.07
2023-01-21T12:33:24.552Z,12.03
2023-01-21T12:35:55.463Z,11.80
2023-01-21T12:38:26.739Z,12.70
2023-01-21T12:41:08.803Z,10.90
2023-01-21T12:43:41.941Z,11.73
2023-01-21T12:46:40.747Z,11.40
2023-01-21T12:49:07.300Z,12.40
2023-01-21T12:51:40.143Z,12.57
2023-01-21T12:54:25.660Z,11.70
2023-01-21T12:57:03.126Z,11.00
2023-01-21T12:59:42.681Z,12.30
2023-01-21T13:02:34.136Z,12.63
2023-01-21T13:05:49.366Z,12.27
2023-01-21T13:08:18.631Z,12.23
2023-01-21T13:10:50.041Z,12.07
2023-01-21T13:13:41.765Z,12.30
2023-01-21T13:16:09.957Z,10.53
2023-01-21T13:18:40.963Z,12.80
2023-01-21T13:21:13.455Z,11.70
2023-01-21T13:23:54.217Z,12.77
2023-01-21T13:26:43.795Z,12.30
2023-01-21T13:29:18.523Z,12.30
2023-01-21T13:32:38.893Z,13.00
2023-01-21T13:35:46.034Z,13.57
2023-01-21T13:38:41.520Z,13.67
2023-01-21T13:41:46.829Z,12.17
2023-01-21T13:44:31.927Z,12.30
2023-01-21T13:47:25.503Z,13.67
2023-01-21T13:50:17.290Z,13.90
2023-01-21T13:52:55.565Z,12.80
2023-01-21T13:55:24.919Z,12.47
2023-01-21T13:58:03.062Z,13.90
2023-01-21T14:00:35.608Z,13.00
2023-01-21T14:03:12.504Z,13.60
2023-01-21T14:06:06.254Z,13.27
2023-01-21T14:08:48.271Z,14.03
2023-01-21T14:12:04.487Z,13.83
2023-01-21T14:14:49.824Z,20.00
2023-01-21T14:17:23.501Z,15.20
2023-01-21T14:20:03.451Z,14.07
2023-01-21T14:22:51.616Z,14.10
2023-01-21T14:25:32.236Z,13.87
2023-01-21T14:28:04.813Z,15.30
2023-01-21T14:30:38.866Z,14.90
2023-01-21T14:33:11.498Z,15.67
2023-01-21T14:36:14.531Z,15.40
2023-01-21T14:38:50.414Z,15.50
2023-01-21T14:41:17.032Z,16.37
2023-01-21T14:43:44.281Z,14.57
2023-01-21T14:46:25.191Z,13.77
2023-01-21T14:49:11.785Z,14.97
2023-01-21T14:51:44.316Z,14.63
2023-01-21T14:54:17.580Z,16.00
2023-01-21T14:57:13.669Z,14.33
2023-01-21T14:59:46.169Z,14.50
2023-01-21T15:02:34.001Z,13.63
2023-01-21T15:05:03.649Z,14.23
2023-01-21T15:07:41.660Z,14.53
2023-01-21T15:10:15.187Z,13.67
2023-01-21T15:12:51.702Z,14.60
2023-01-21T15:15:32.890Z,13.73
2023-01-21T15:18:24.377Z,14.63
2023-01-21T15:20:58.844Z,13.13
2023-01-21T15:23:31.128Z,13.37
2023-01-21T15:26:11.075Z,13.27
2023-01-21T15:28:46.595Z,13.37
2023-01-21T15:31:21.804Z,13.63
2023-01-21T15:34:00.827Z,14.70
2023-01-21T15:36:31.686Z,13.17
2023-01-21T15:39:19.051Z,13.53
2023-01-21T15:42:13.463Z,13.60
2023-01-21T15:44:48.123Z,11.70
2023-01-21T15:47:29.444Z,12.63
2023-01-21T15:50:17.631Z,11.80
2023-01-21T15:53:22.037Z,12.60
2023-01-21T15:56:07.467Z,13.20
2023-01-21T15:58:46.239Z,10.67
2023-01-21T16:01:38.905Z,11.27
2023-01-21T16:04:35.572Z,11.50
2023-01-21T16:07:38.928Z,11.87
2023-01-21T16:10:42.909Z,12.17
2023-01-21T16:13:33.928Z,12.27
2023-01-21T16:16:03.662Z,13.77
2023-01-21T16:19:03.984Z,12.07
2023-01-21T16:21:36.651Z,10.80
2023-01-21T16:24:12.952Z,10.70
2023-01-21T16:26:39.543Z,11.60
2023-01-21T16:29:12.978Z,11.83
2023-01-21T16:31:51.116Z,11.17
2023-01-21T16:34:31.290Z,11.67
2023-01-21T16:36:58.196Z,12.13
2023-01-21T16:39:25.632Z,12.03
2023-01-21T16:42:04.506Z,12.23
2023-01-21T16:44:33.607Z,11.40
2023-01-21T16:47:00.526Z,13.17
2023-01-21T16:49:27.271Z,11.30
2023-01-21T16:51:57.213Z,11.33
2023-01-21T16:54:32.049Z,11.77
2023-01-21T16:57:19.464Z,12.90
2023-01-21T16:59:48.318Z,11.53
2023-01-21T17:02:22.278Z,10.73
2023-01-21T17:04:49.657Z,13.43
2023-01-21T17:07:24.284Z,12.17
2023-01-21T17:09:59.028Z,14.17
2023-01-21T17:12:28.181Z,14.93
2023-01-21T17:14:58.602Z,13.23
2023-01-21T17:17:31.208Z,14.70
2023-01-21T17:19:58.633Z,16.30
2023-01-21T17:22:28.748Z,14.63
2023-01-21T17:25:12.532Z,14.40
2023-01-21T17:27:44.578Z,14.60
2023-01-21T17:30:37.488Z,13.90
2023-01-21T17:33:04.048Z,14.00
2023-01-21T17:35:32.803Z,13.30
2023-01-21T17:38:05.306Z,12.70
2023-01-21T17:40:42.404Z,15.63
2023-01-21T17:43:19.200Z,15.97
2023-01-21T17:45:47.645Z,14.00
2023-01-21T17:48:29.823Z,14.80
2023-01-21T17:51:05.294Z,12.80
2023-01-21T17:53:31.927Z,13.33
2023-01-21T17:56:06.081Z,12.83
2023-01-21T17:58:51.127Z,12.33
2023-01-21T18:01:19.982Z,13.87
2023-01-21T18:03:46.860Z,14.00
2023-01-21T18:06:19.785Z,11.70
2023-01-21T18:08:46.445Z,11.97
2023-01-21T18:11:15.964Z,12.70
2023-01-21T18:13:42.641Z,11.73
2023-01-21T18:16:09.366Z,13.37
2023-01-21T18:18:36.126Z,11.70
2023-01-21T18:21:02.775Z,11.40
2023-01-21T18:23:30.407Z,11.73
2023-01-21T18:25:57.410Z,11.53
2023-01-21T18:28:28.714Z,11.37
2023-01-21T18:30:57.511Z,12.63
2023-01-21T18:33:24.744Z,12.60
2023-01-21T18:35:52.461Z,12.53
2023-01-21T18:38:27.225Z,12.83
2023-01-21T18:40:57.551Z,12.37
2023-01-21T18:43:25.500Z,13.10
2023-01-21T18:45:54.150Z,13.27
2023-01-21T18:48:27.391Z,13.50
2023-01-21T18:50:54.108Z,12.10
2023-01-21T18:53:20.750Z,13.00
2023-01-21T18:55:50.192Z,13.30
2023-01-21T18:58:17.177Z,14.90
2023-01-21T19:00:43.858Z,13.87
2023-01-21T19:03:13.693Z,14.17
2023-01-21T19:05:43.207Z,14.20
2023-01-21T19:08:14.281Z,15.23
2023-01-21T19:10:40.864Z,14.93
2023-01-21T19:13:09.407Z,15.90
2023-01-21T19:15:36.149Z,16.10
2023-01-21T19:18:03.025Z,15.17
2023-01-21T19:20:30.128Z,17.33
2023-01-21T19:22:56.751Z,15.97
2023-01-21T19:25:25.867Z,15.30
2023-01-21T19:27:55.531Z,16.73
2023-01-21T19:30:25.099Z,16.10
2023-01-21T19:32:53.624Z,16.20
2023-01-21T19:35:27.600Z,15.50
2023-01-21T19:37:54.903Z,16.60
2023-01-21T19:40:23.783Z,17.33
2023-01-21T19:42:50.637Z,15.60
2023-01-21T19:45:18.576Z,18.30
2023-01-21T19:47:48.661Z,17.03
2023-01-21T19:50:21.547Z,17.70
2023-01-21T19:52:49.906Z,16.00
2023-01-21T19:55:19.837Z,17.67
2023-01-21T19:57:50.208Z,17.77
2023-01-21T20:00:22.990Z,17.30
2023-01-21T20:02:49.662Z,16.87
2023-01-21T20:05:16.856Z,17.10
2023-01-21T20:07:44.809Z,16.70
2023-01-21T20:10:16.374Z,18.33
2023-01-21T20:12:46.834Z,17.87
2023-01-21T20:15:21.262Z,17.13
2023-01-21T20:17:52.514Z,19.33
2023-01-21T20:20:22.561Z,18.47
2023-01-21T20:22:49.449Z,18.47
2023-01-21T20:25:31.527Z,16.87
2023-01-21T20:28:00.254Z,17.57
2023-01-21T20:30:29.940Z,17.17
2023-01-21T20:32:57.767Z,15.70
2023-01-21T20:35:26.901Z,17.53
2023-01-21T20:37:55.598Z,16.90
2023-01-21T20:40:24.943Z,15.03
2023-01-21T20:42:52.399Z,17.43
2023-01-21T20:45:21.400Z,16.00
2023-01-21T20:47:51.292Z,16.93
2023-01-21T20:50:23.548Z,17.57
2023-01-21T20:52:51.592Z,16.70
2023-01-21T20:55:21.330Z,18.00
2023-01-21T20:57:48.146Z,16.20
2023-01-21T21:00:18.076Z,16.30
2023-01-21T21:02:45.292Z,15.60
2023-01-21T21:05:17.342Z,15.50
2023-01-21T21:07:44.339Z,17.30
2023-01-21T21:10:27.031Z,16.73
2023-01-21T21:12:55.354Z,17.27
2023-01-21T21:15:22.261Z,15.80
2023-01-21T21:17:49.043Z,16.07
2023-01-21T21:20:20.274Z,16.50
2023-01-21T21:22:48.159Z,16.33
2023-01-21T21:25:19.888Z,14.10
2023-01-21T21:27:47.384Z,14.10
2023-01-21T21:30:20.086Z,15.80
2023-01-21T21:32:46.683Z,15.77
2023-01-21T21:35:35.613Z,15.83
2023-01-21T21:38:07.532Z,14.67
2023-01-21T21:40:40.141Z,15.00
2023-01-21T21:43:25.614Z,13.57
2023-01-21T21:46:30.770Z,15.17
2023-01-21T21:48:57.328Z,16.03
2023-01-21T21:51:24.061Z,15.53
2023-01-21T21:53:51.166Z,14.90
2023-01-21T21:56:22.584Z,14.90
2023-01-21T21:58:50.332Z,14.47
2023-01-21T22:01:22.986Z,14.60
2023-01-21T22:03:50.024Z,13.23
2023-01-21T22:06:21.535Z,14.57
2023-01-21T22:08:49.079Z,13.23
2023-01-21T22:11:18.401Z,13.03
2023-01-21T22:13:50.147Z,13.90
2023-01-21T22:16:23.543Z,13.27
2023-01-21T22:18:51.379Z,12.70
2023-01-21T22:21:23.465Z,13.80
2023-01-21T22:23:50.786Z,14.10
2023-01-21T22:26:22.155Z,14.30
2023-01-21T22:28:51.112Z,13.60
2023-01-21T22:31:23.408Z,13.13
2023-01-21T22:33:50.881Z,16.10
2023-01-21T22:36:20.316Z,14.67
2023-01-21T22:38:47.653Z,14.50
2023-01-21T22:41:16.179Z,13.53
2023-01-21T22:43:50.087Z,14.33
2023-01-21T22:46:19.848Z,13.50
2023-01-21T22:48:46.825Z,14.20
2023-01-21T22:51:15.735Z,13.37
2023-01-21T22:53:45.159Z,13.90
2023-01-21T22:56:14.325Z,14.57
2023-01-21T22:58:41.143Z,14.30
2023-01-21T23:01:08.927Z,14.10
2023-01-21T23:03:37.068Z,14.70
2023-01-21T23:06:08.256Z,14.10
2023-01-21T23:08:37.714Z,13.07
2023-01-21T23:11:06.700Z,15.10
2023-01-21T23:13:34.426Z,15.00
2023-01-21T23:16:01.716Z,13.60
2023-01-21T23:18:29.260Z,15.80
2023-01-21T23:20:56.320Z,13.63
2023-01-21T23:23:23.882Z,14.77
2023-01-21T23:25:50.460Z,14.40
2023-01-21T23:28:17.572Z,12.43
2023-01-21T23:30:44.174Z,14.50
2023-01-21T23:33:11.945Z,12.97
2023-01-21T23:35:38.481Z,13.80
2023-01-21T23:38:05.027Z,12.80
2023-01-21T23:40:31.591Z,13.20
2023-01-21T23:42:58.273Z,12.97
2023-01-21T23:45:24.821Z,12.97
2023-01-21T23:47:51.453Z,11.70
2023-01-21T23:50:18.399Z,14.60
2023-01-21T23:52:45.096Z,13.37
2023-01-21T23:55:11.718Z,13.57
2023-01-21T23:57:38.292Z,12.50
